sensor_id;sensor_type;location;lat;lon;timestamp;P1;durP1;ratioP1;P2;durP2;ratioP2
32228;SDS011;18717;48.034;11.186;2023-05-14T00:00:14;14.35;;;13.05;;
32228;SDS011;18717;48.034;11.186;2023-05-14T00:02:44;14.80;;;13.60;;
32228;SDS011;18717;48.034;11.186;2023-05-14T00:05:11;13.82;;;12.63;;
32228;SDS011;18717;48.034;11.186;2023-05-14T00:07:39;15.55;;;14.15;;
32228;SDS011;18717;48.034;11.186;2023-05-14T00:10:07;15.07;;;13.77;;
32228;SDS011;18717;48.034;11.186;2023-05-14T00:12:35;14.68;;;13.43;;
32228;SDS011;18717;48.034;11.186;2023-05-14T00:15:03;14.98;;;13.70;;
32228;SDS011;18717;48.034;11.186;2023-05-14T00:17:31;14.63;;;13.38;;
32228;SDS011;18717;48.034;11.186;2023-05-14T00:20:00;14.65;;;13.18;;
32228;SDS011;18717;48.034;11.186;2023-05-14T00:22:28;15.35;;;13.88;;
32228;SDS011;18717;48.034;11.186;2023-05-14T00:24:56;16.00;;;14.40;;
32228;SDS011;18717;48.034;11.186;2023-05-14T00:27:23;15.85;;;14.25;;
32228;SDS011;18717;48.034;11.186;2023-05-14T00:29:51;16.88;;;15.00;;
32228;SDS011;18717;48.034;11.186;2023-05-14T00:32:19;16.20;;;14.60;;
32228;SDS011;18717;48.034;11.186;2023-05-14T00:34:46;15.05;;;13.60;;
32228;SDS011;18717;48.034;11.186;2023-05-14T00:37:15;16.20;;;14.32;;
32228;SDS011;18717;48.034;11.186;2023-05-14T00:39:43;17.45;;;15.75;;
32228;SDS011;18717;48.034;11.186;2023-05-14T00:42:11;21.30;;;16.77;;
32228;SDS011;18717;48.034;11.186;2023-05-14T00:44:38;17.92;;;15.60;;
32228;SDS011;18717;48.034;11.186;2023-05-14T00:47:06;26.15;;;16.70;;
32228;SDS011;18717;48.034;11.186;2023-05-14T00:49:34;18.33;;;16.33;;
32228;SDS011;18717;48.034;11.186;2023-05-14T00:52:02;24.83;;;18.23;;
32228;SDS011;18717;48.034;11.186;2023-05-14T00:54:31;20.00;;;17.55;;
32228;SDS011;18717;48.034;11.186;2023-05-14T00:56:59;21.50;;;17.10;;
32228;SDS011;18717;48.034;11.186;2023-05-14T00:59:27;22.13;;;17.85;;
32228;SDS011;18717;48.034;11.186;2023-05-14T01:01:55;19.05;;;17.02;;
32228;SDS011;18717;48.034;11.186;2023-05-14T01:04:23;19.63;;;17.52;;
32228;SDS011;18717;48.034;11.186;2023-05-14T01:06:53;22.42;;;18.95;;
32228;SDS011;18717;48.034;11.186;2023-05-14T01:09:28;22.65;;;17.75;;
32228;SDS011;18717;48.034;11.186;2023-05-14T01:12:04;22.73;;;17.83;;
32228;SDS011;18717;48.034;11.186;2023-05-14T01:14:37;18.98;;;17.00;;
32228;SDS011;18717;48.034;11.186;2023-05-14T01:17:09;22.13;;;17.98;;
32228;SDS011;18717;48.034;11.186;2023-05-14T01:19:38;20.70;;;16.73;;
32228;SDS011;18717;48.034;11.186;2023-05-14T01:22:09;24.55;;;16.48;;
32228;SDS011;18717;48.034;11.186;2023-05-14T01:24:37;19.13;;;16.98;;
32228;SDS011;18717;48.034;11.186;2023-05-14T01:27:06;20.17;;;16.95;;
32228;SDS011;18717;48.034;11.186;2023-05-14T01:29:37;22.33;;;18.15;;
32228;SDS011;18717;48.034;11.186;2023-05-14T01:32:08;23.20;;;17.70;;
32228;SDS011;18717;48.034;11.186;2023-05-14T01:34:36;25.05;;;19.63;;
32228;SDS011;18717;48.034;11.186;2023-05-14T01:37:06;25.77;;;19.83;;
32228;SDS011;18717;48.034;11.186;2023-05-14T01:39:36;26.88;;;20.52;;
32228;SDS011;18717;48.034;11.186;2023-05-14T01:42:04;26.55;;;20.55;;
32228;SDS011;18717;48.034;11.186;2023-05-14T01:44:33;27.42;;;20.10;;
32228;SDS011;18717;48.034;11.186;2023-05-14T01:47:00;30.45;;;21.52;;
32228;SDS011;18717;48.034;11.186;2023-05-14T01:49:28;25.25;;;20.50;;
32228;SDS011;18717;48.034;11.186;2023-05-14T01:51:56;28.50;;;20.85;;
32228;SDS011;18717;48.034;11.186;2023-05-14T01:54:25;33.15;;;22.90;;
32228;SDS011;18717;48.034;11.186;2023-05-14T01:56:52;29.05;;;20.75;;
32228;SDS011;18717;48.034;11.186;2023-05-14T01:59:20;29.75;;;21.80;;
32228;SDS011;18717;48.034;11.186;2023-05-14T02:01:48;32.83;;;23.67;;
32228;SDS011;18717;48.034;11.186;2023-05-14T02:04:15;30.50;;;22.55;;
32228;SDS011;18717;48.034;11.186;2023-05-14T02:06:43;32.85;;;23.33;;
32228;SDS011;18717;48.034;11.186;2023-05-14T02:09:11;29.50;;;20.35;;
32228;SDS011;18717;48.034;11.186;2023-05-14T02:11:40;39.35;;;23.65;;
32228;SDS011;18717;48.034;11.186;2023-05-14T02:14:08;31.40;;;23.05;;
32228;SDS011;18717;48.034;11.186;2023-05-14T02:16:35;28.88;;;22.80;;
32228;SDS011;18717;48.034;11.186;2023-05-14T02:19:03;31.58;;;23.83;;
32228;SDS011;18717;48.034;11.186;2023-05-14T02:21:31;34.53;;;24.10;;
32228;SDS011;18717;48.034;11.186;2023-05-14T02:23:59;29.50;;;23.70;;
32228;SDS011;18717;48.034;11.186;2023-05-14T02:26:26;31.48;;;23.90;;
32228;SDS011;18717;48.034;11.186;2023-05-14T02:28:56;31.20;;;23.08;;
32228;SDS011;18717;48.034;11.186;2023-05-14T02:31:24;28.98;;;22.13;;
32228;SDS011;18717;48.034;11.186;2023-05-14T02:33:51;31.42;;;24.40;;
32228;SDS011;18717;48.034;11.186;2023-05-14T02:36:19;34.33;;;24.48;;
32228;SDS011;18717;48.034;11.186;2023-05-14T02:38:47;36.42;;;24.02;;
32228;SDS011;18717;48.034;11.186;2023-05-14T02:41:14;32.65;;;23.67;;
32228;SDS011;18717;48.034;11.186;2023-05-14T02:43:42;34.92;;;22.10;;
32228;SDS011;18717;48.034;11.186;2023-05-14T02:46:11;39.20;;;24.50;;
32228;SDS011;18717;48.034;11.186;2023-05-14T02:48:39;34.08;;;24.13;;
32228;SDS011;18717;48.034;11.186;2023-05-14T02:51:07;34.25;;;23.83;;
32228;SDS011;18717;48.034;11.186;2023-05-14T02:53:34;36.13;;;24.98;;
32228;SDS011;18717;48.034;11.186;2023-05-14T02:56:02;35.60;;;24.25;;
32228;SDS011;18717;48.034;11.186;2023-05-14T02:58:30;37.78;;;26.38;;
32228;SDS011;18717;48.034;11.186;2023-05-14T03:00:58;34.60;;;24.73;;
32228;SDS011;18717;48.034;11.186;2023-05-14T03:03:27;38.58;;;25.75;;
32228;SDS011;18717;48.034;11.186;2023-05-14T03:05:56;36.45;;;25.45;;
32228;SDS011;18717;48.034;11.186;2023-05-14T03:08:24;39.90;;;23.98;;
32228;SDS011;18717;48.034;11.186;2023-05-14T03:10:51;38.10;;;25.77;;
32228;SDS011;18717;48.034;11.186;2023-05-14T03:13:19;34.15;;;24.70;;
32228;SDS011;18717;48.034;11.186;2023-05-14T03:15:47;39.42;;;25.67;;
32228;SDS011;18717;48.034;11.186;2023-05-14T03:18:19;41.35;;;26.88;;
32228;SDS011;18717;48.034;11.186;2023-05-14T03:20:48;37.72;;;26.17;;
32228;SDS011;18717;48.034;11.186;2023-05-14T03:23:16;38.67;;;25.55;;
32228;SDS011;18717;48.034;11.186;2023-05-14T03:25:44;38.72;;;27.15;;
32228;SDS011;18717;48.034;11.186;2023-05-14T03:28:11;41.60;;;25.77;;
32228;SDS011;18717;48.034;11.186;2023-05-14T03:30:39;45.47;;;28.42;;
32228;SDS011;18717;48.034;11.186;2023-05-14T03:33:07;44.72;;;27.10;;
32228;SDS011;18717;48.034;11.186;2023-05-14T03:35:34;44.92;;;26.83;;
32228;SDS011;18717;48.034;11.186;2023-05-14T03:38:03;45.25;;;28.20;;
32228;SDS011;18717;48.034;11.186;2023-05-14T03:40:31;42.70;;;27.38;;
32228;SDS011;18717;48.034;11.186;2023-05-14T03:42:58;51.35;;;29.10;;
32228;SDS011;18717;48.034;11.186;2023-05-14T03:45:26;52.85;;;29.58;;
32228;SDS011;18717;48.034;11.186;2023-05-14T03:47:55;50.30;;;29.05;;
32228;SDS011;18717;48.034;11.186;2023-05-14T03:50:23;49.30;;;29.95;;
32228;SDS011;18717;48.034;11.186;2023-05-14T03:52:51;45.47;;;27.67;;
32228;SDS011;18717;48.034;11.186;2023-05-14T03:55:21;45.92;;;28.88;;
32228;SDS011;18717;48.034;11.186;2023-05-14T03:57:49;42.38;;;27.52;;
32228;SDS011;18717;48.034;11.186;2023-05-14T04:00:17;50.78;;;29.42;;
32228;SDS011;18717;48.034;11.186;2023-05-14T04:02:45;56.03;;;29.00;;
32228;SDS011;18717;48.034;11.186;2023-05-14T04:05:12;52.50;;;29.63;;
32228;SDS011;18717;48.034;11.186;2023-05-14T04:07:40;44.65;;;28.67;;
32228;SDS011;18717;48.034;11.186;2023-05-14T04:10:08;46.13;;;27.27;;
32228;SDS011;18717;48.034;11.186;2023-05-14T04:12:37;46.30;;;29.40;;
32228;SDS011;18717;48.034;11.186;2023-05-14T04:15:05;53.08;;;30.30;;
32228;SDS011;18717;48.034;11.186;2023-05-14T04:17:33;51.47;;;28.08;;
32228;SDS011;18717;48.034;11.186;2023-05-14T04:20:01;37.45;;;25.80;;
32228;SDS011;18717;48.034;11.186;2023-05-14T04:22:29;39.97;;;26.35;;
32228;SDS011;18717;48.034;11.186;2023-05-14T04:24:57;45.40;;;28.33;;
32228;SDS011;18717;48.034;11.186;2023-05-14T04:27:24;46.13;;;28.27;;
32228;SDS011;18717;48.034;11.186;2023-05-14T04:29:54;46.50;;;27.92;;
32228;SDS011;18717;48.034;11.186;2023-05-14T04:32:22;56.05;;;31.13;;
32228;SDS011;18717;48.034;11.186;2023-05-14T04:34:49;48.45;;;28.17;;
32228;SDS011;18717;48.034;11.186;2023-05-14T04:37:17;49.85;;;29.52;;
32228;SDS011;18717;48.034;11.186;2023-05-14T04:39:45;46.97;;;27.55;;
32228;SDS011;18717;48.034;11.186;2023-05-14T04:42:12;45.75;;;27.95;;
32228;SDS011;18717;48.034;11.186;2023-05-14T04:44:40;45.55;;;28.20;;
32228;SDS011;18717;48.034;11.186;2023-05-14T04:47:09;40.83;;;26.88;;
32228;SDS011;18717;48.034;11.186;2023-05-14T04:49:36;49.78;;;28.50;;
32228;SDS011;18717;48.034;11.186;2023-05-14T04:52:04;52.72;;;29.92;;
32228;SDS011;18717;48.034;11.186;2023-05-14T04:54:32;44.28;;;27.00;;
32228;SDS011;18717;48.034;11.186;2023-05-14T04:57:00;44.53;;;26.33;;
32228;SDS011;18717;48.034;11.186;2023-05-14T04:59:28;44.72;;;28.10;;
32228;SDS011;18717;48.034;11.186;2023-05-14T05:01:56;45.92;;;27.23;;
32228;SDS011;18717;48.034;11.186;2023-05-14T05:04:25;48.30;;;28.52;;
32228;SDS011;18717;48.034;11.186;2023-05-14T05:06:53;49.45;;;29.00;;
32228;SDS011;18717;48.034;11.186;2023-05-14T05:09:20;47.45;;;26.75;;
32228;SDS011;18717;48.034;11.186;2023-05-14T05:11:48;49.38;;;28.75;;
32228;SDS011;18717;48.034;11.186;2023-05-14T05:14:15;46.42;;;27.50;;
32228;SDS011;18717;48.034;11.186;2023-05-14T05:16:43;41.92;;;26.58;;
32228;SDS011;18717;48.034;11.186;2023-05-14T05:19:11;45.58;;;27.80;;
32228;SDS011;18717;48.034;11.186;2023-05-14T05:21:40;46.13;;;28.42;;
32228;SDS011;18717;48.034;11.186;2023-05-14T05:24:08;46.00;;;27.60;;
32228;SDS011;18717;48.034;11.186;2023-05-14T05:26:35;45.13;;;26.50;;
32228;SDS011;18717;48.034;11.186;2023-05-14T05:29:03;45.38;;;28.45;;
32228;SDS011;18717;48.034;11.186;2023-05-14T05:31:31;38.42;;;25.48;;
32228;SDS011;18717;48.034;11.186;2023-05-14T05:33:58;42.75;;;26.58;;
32228;SDS011;18717;48.034;11.186;2023-05-14T05:36:26;38.22;;;24.27;;
32228;SDS011;18717;48.034;11.186;2023-05-14T05:38:55;39.60;;;25.65;;
32228;SDS011;18717;48.034;11.186;2023-05-14T05:41:23;36.95;;;25.30;;
32228;SDS011;18717;48.034;11.186;2023-05-14T05:43:51;37.10;;;24.15;;
32228;SDS011;18717;48.034;11.186;2023-05-14T05:46:19;36.13;;;25.15;;
32228;SDS011;18717;48.034;11.186;2023-05-14T05:48:47;39.55;;;24.52;;
32228;SDS011;18717;48.034;11.186;2023-05-14T05:51:14;38.58;;;24.17;;
32228;SDS011;18717;48.034;11.186;2023-05-14T05:53:42;36.35;;;24.95;;
32228;SDS011;18717;48.034;11.186;2023-05-14T05:56:11;36.17;;;25.30;;
32228;SDS011;18717;48.034;11.186;2023-05-14T05:58:38;36.60;;;24.67;;
32228;SDS011;18717;48.034;11.186;2023-05-14T06:01:06;36.47;;;25.05;;
32228;SDS011;18717;48.034;11.186;2023-05-14T06:03:34;43.63;;;28.30;;
32228;SDS011;18717;48.034;11.186;2023-05-14T06:06:01;38.58;;;25.17;;
32228;SDS011;18717;48.034;11.186;2023-05-14T06:08:29;36.15;;;24.15;;
32228;SDS011;18717;48.034;11.186;2023-05-14T06:10:56;38.60;;;26.48;;
32228;SDS011;18717;48.034;11.186;2023-05-14T06:13:25;45.60;;;26.23;;
32228;SDS011;18717;48.034;11.186;2023-05-14T06:15:53;37.97;;;25.33;;
32228;SDS011;18717;48.034;11.186;2023-05-14T06:18:21;42.78;;;26.75;;
32228;SDS011;18717;48.034;11.186;2023-05-14T06:20:48;40.70;;;25.88;;
32228;SDS011;18717;48.034;11.186;2023-05-14T06:23:16;37.85;;;26.00;;
32228;SDS011;18717;48.034;11.186;2023-05-14T06:25:43;40.95;;;26.38;;
32228;SDS011;18717;48.034;11.186;2023-05-14T06:28:12;39.95;;;25.58;;
32228;SDS011;18717;48.034;11.186;2023-05-14T06:30:41;45.47;;;27.33;;
32228;SDS011;18717;48.034;11.186;2023-05-14T06:33:09;47.50;;;26.17;;
32228;SDS011;18717;48.034;11.186;2023-05-14T06:35:38;45.15;;;27.10;;
32228;SDS011;18717;48.034;11.186;2023-05-14T06:38:06;45.42;;;27.95;;
32228;SDS011;18717;48.034;11.186;2023-05-14T06:40:33;44.22;;;26.75;;
32228;SDS011;18717;48.034;11.186;2023-05-14T06:43:01;39.53;;;26.05;;
32228;SDS011;18717;48.034;11.186;2023-05-14T06:45:29;42.40;;;25.08;;
32228;SDS011;18717;48.034;11.186;2023-05-14T06:47:59;41.95;;;25.67;;
32228;SDS011;18717;48.034;11.186;2023-05-14T06:50:27;37.40;;;24.27;;
32228;SDS011;18717;48.034;11.186;2023-05-14T06:52:55;34.83;;;24.13;;
32228;SDS011;18717;48.034;11.186;2023-05-14T06:55:22;35.20;;;24.80;;
32228;SDS011;18717;48.034;11.186;2023-05-14T06:57:50;38.33;;;24.85;;
32228;SDS011;18717;48.034;11.186;2023-05-14T07:00:18;38.90;;;24.98;;
32228;SDS011;18717;48.034;11.186;2023-05-14T07:02:47;35.17;;;24.45;;
32228;SDS011;18717;48.034;11.186;2023-05-14T07:05:16;33.17;;;24.50;;
32228;SDS011;18717;48.034;11.186;2023-05-14T07:07:43;33.72;;;24.40;;
32228;SDS011;18717;48.034;11.186;2023-05-14T07:10:11;31.40;;;21.67;;
32228;SDS011;18717;48.034;11.186;2023-05-14T07:12:39;34.75;;;23.55;;
32228;SDS011;18717;48.034;11.186;2023-05-14T07:15:07;29.58;;;22.23;;
32228;SDS011;18717;48.034;11.186;2023-05-14T07:17:35;30.08;;;21.98;;
32228;SDS011;18717;48.034;11.186;2023-05-14T07:20:03;29.73;;;21.33;;
32228;SDS011;18717;48.034;11.186;2023-05-14T07:22:33;31.70;;;21.02;;
32228;SDS011;18717;48.034;11.186;2023-05-14T07:25:00;24.63;;;20.67;;
32228;SDS011;18717;48.034;11.186;2023-05-14T07:27:28;30.02;;;20.85;;
32228;SDS011;18717;48.034;11.186;2023-05-14T07:29:56;31.73;;;22.73;;
32228;SDS011;18717;48.034;11.186;2023-05-14T07:32:23;32.00;;;22.65;;
32228;SDS011;18717;48.034;11.186;2023-05-14T07:34:51;33.60;;;23.88;;
32228;SDS011;18717;48.034;11.186;2023-05-14T07:37:19;35.38;;;24.45;;
32228;SDS011;18717;48.034;11.186;2023-05-14T07:39:50;36.25;;;24.45;;
32228;SDS011;18717;48.034;11.186;2023-05-14T07:42:18;30.45;;;22.92;;
32228;SDS011;18717;48.034;11.186;2023-05-14T07:47:28;29.63;;;21.85;;
32228;SDS011;18717;48.034;11.186;2023-05-14T07:49:56;34.50;;;24.77;;
32228;SDS011;18717;48.034;11.186;2023-05-14T07:52:24;27.42;;;20.30;;
32228;SDS011;18717;48.034;11.186;2023-05-14T07:54:53;28.67;;;20.63;;
32228;SDS011;18717;48.034;11.186;2023-05-14T07:57:20;32.65;;;22.80;;
32228;SDS011;18717;48.034;11.186;2023-05-14T07:59:48;30.40;;;22.25;;
32228;SDS011;18717;48.034;11.186;2023-05-14T08:02:16;30.00;;;22.40;;
32228;SDS011;18717;48.034;11.186;2023-05-14T08:04:43;31.30;;;22.48;;
32228;SDS011;18717;48.034;11.186;2023-05-14T08:07:11;26.35;;;22.00;;
32228;SDS011;18717;48.034;11.186;2023-05-14T08:09:39;32.13;;;22.42;;
32228;SDS011;18717;48.034;11.186;2023-05-14T08:12:08;31.55;;;22.30;;
32228;SDS011;18717;48.034;11.186;2023-05-14T08:14:35;31.70;;;23.75;;
32228;SDS011;18717;48.034;11.186;2023-05-14T08:17:03;40.47;;;24.83;;
32228;SDS011;18717;48.034;11.186;2023-05-14T08:19:31;32.65;;;24.38;;
32228;SDS011;18717;48.034;11.186;2023-05-14T08:21:59;31.45;;;23.20;;
32228;SDS011;18717;48.034;11.186;2023-05-14T08:24:26;30.58;;;22.33;;
32228;SDS011;18717;48.034;11.186;2023-05-14T08:26:54;35.00;;;25.38;;
32228;SDS011;18717;48.034;11.186;2023-05-14T08:29:23;34.22;;;24.00;;
32228;SDS011;18717;48.034;11.186;2023-05-14T08:31:51;33.40;;;22.90;;
32228;SDS011;18717;48.034;11.186;2023-05-14T08:34:18;35.95;;;24.40;;
32228;SDS011;18717;48.034;11.186;2023-05-14T08:36:46;37.47;;;24.40;;
32228;SDS011;18717;48.034;11.186;2023-05-14T08:39:14;28.13;;;21.75;;
32228;SDS011;18717;48.034;11.186;2023-05-14T08:41:41;29.50;;;23.48;;
32228;SDS011;18717;48.034;11.186;2023-05-14T08:44:11;29.02;;;21.13;;
32228;SDS011;18717;48.034;11.186;2023-05-14T08:46:40;29.70;;;20.95;;
32228;SDS011;18717;48.034;11.186;2023-05-14T08:49:20;29.33;;;21.20;;
32228;SDS011;18717;48.034;11.186;2023-05-14T08:51:51;31.45;;;21.70;;
32228;SDS011;18717;48.034;11.186;2023-05-14T08:54:19;30.85;;;21.92;;
32228;SDS011;18717;48.034;11.186;2023-05-14T08:56:48;28.23;;;21.52;;
32228;SDS011;18717;48.034;11.186;2023-05-14T08:59:17;27.33;;;21.13;;
32228;SDS011;18717;48.034;11.186;2023-05-14T09:01:47;31.13;;;22.70;;
32228;SDS011;18717;48.034;11.186;2023-05-14T09:04:15;27.10;;;21.02;;
32228;SDS011;18717;48.034;11.186;2023-05-14T09:06:47;22.95;;;20.27;;
32228;SDS011;18717;48.034;11.186;2023-05-14T09:09:15;28.92;;;21.60;;
32228;SDS011;18717;48.034;11.186;2023-05-14T09:11:44;29.27;;;21.25;;
32228;SDS011;18717;48.034;11.186;2023-05-14T09:14:12;25.80;;;20.63;;
32228;SDS011;18717;48.034;11.186;2023-05-14T09:16:41;29.90;;;21.02;;
32228;SDS011;18717;48.034;11.186;2023-05-14T09:19:12;26.42;;;19.80;;
32228;SDS011;18717;48.034;11.186;2023-05-14T09:21:41;26.83;;;21.15;;
32228;SDS011;18717;48.034;11.186;2023-05-14T09:24:09;32.95;;;21.00;;
32228;SDS011;18717;48.034;11.186;2023-05-14T09:26:48;27.58;;;20.95;;
32228;SDS011;18717;48.034;11.186;2023-05-14T09:29:16;25.67;;;20.13;;
32228;SDS011;18717;48.034;11.186;2023-05-14T09:31:44;26.55;;;20.77;;
32228;SDS011;18717;48.034;11.186;2023-05-14T09:34:13;24.02;;;19.73;;
32228;SDS011;18717;48.034;11.186;2023-05-14T09:36:53;26.50;;;20.20;;
32228;SDS011;18717;48.034;11.186;2023-05-14T09:39:22;26.67;;;20.65;;
32228;SDS011;18717;48.034;11.186;2023-05-14T09:41:50;30.85;;;22.63;;
32228;SDS011;18717;48.034;11.186;2023-05-14T09:44:18;35.25;;;23.60;;
32228;SDS011;18717;48.034;11.186;2023-05-14T09:46:46;37.63;;;24.70;;
32228;SDS011;18717;48.034;11.186;2023-05-14T09:49:15;34.80;;;23.13;;
32228;SDS011;18717;48.034;11.186;2023-05-14T09:51:43;28.27;;;21.55;;
32228;SDS011;18717;48.034;11.186;2023-05-14T09:54:11;34.60;;;24.90;;
32228;SDS011;18717;48.034;11.186;2023-05-14T09:56:39;33.15;;;23.48;;
32228;SDS011;18717;48.034;11.186;2023-05-14T09:59:06;34.15;;;22.95;;
32228;SDS011;18717;48.034;11.186;2023-05-14T10:01:34;36.22;;;24.42;;
32228;SDS011;18717;48.034;11.186;2023-05-14T10:04:02;39.55;;;23.45;;
32228;SDS011;18717;48.034;11.186;2023-05-14T10:06:35;31.50;;;23.13;;
32228;SDS011;18717;48.034;11.186;2023-05-14T10:09:04;32.75;;;23.42;;
32228;SDS011;18717;48.034;11.186;2023-05-14T10:11:34;36.45;;;25.17;;
32228;SDS011;18717;48.034;11.186;2023-05-14T10:14:05;32.38;;;23.20;;
32228;SDS011;18717;48.034;11.186;2023-05-14T10:16:36;34.90;;;24.05;;
32228;SDS011;18717;48.034;11.186;2023-05-14T10:19:04;29.65;;;23.63;;
32228;SDS011;18717;48.034;11.186;2023-05-14T10:21:36;35.85;;;24.45;;
32228;SDS011;18717;48.034;11.186;2023-05-14T10:24:05;37.42;;;25.33;;
32228;SDS011;18717;48.034;11.186;2023-05-14T10:26:35;32.22;;;24.15;;
32228;SDS011;18717;48.034;11.186;2023-05-14T10:29:04;35.90;;;23.75;;
32228;SDS011;18717;48.034;11.186;2023-05-14T10:31:45;34.47;;;23.83;;
32228;SDS011;18717;48.034;11.186;2023-05-14T10:37:04;28.45;;;22.13;;
32228;SDS011;18717;48.034;11.186;2023-05-14T10:39:39;28.65;;;21.98;;
32228;SDS011;18717;48.034;11.186;2023-05-14T10:42:07;32.60;;;23.73;;
32228;SDS011;18717;48.034;11.186;2023-05-14T10:44:38;30.65;;;23.58;;
32228;SDS011;18717;48.034;11.186;2023-05-14T10:47:09;32.08;;;22.98;;
32228;SDS011;18717;48.034;11.186;2023-05-14T10:49:37;28.95;;;22.65;;
32228;SDS011;18717;48.034;11.186;2023-05-14T10:52:10;32.47;;;24.25;;
32228;SDS011;18717;48.034;11.186;2023-05-14T10:54:38;34.97;;;23.83;;
32228;SDS011;18717;48.034;11.186;2023-05-14T10:57:08;29.65;;;21.63;;
32228;SDS011;18717;48.034;11.186;2023-05-14T10:59:40;28.35;;;22.42;;
32228;SDS011;18717;48.034;11.186;2023-05-14T11:02:17;29.88;;;20.52;;
32228;SDS011;18717;48.034;11.186;2023-05-14T11:04:56;27.50;;;20.95;;
32228;SDS011;18717;48.034;11.186;2023-05-14T11:07:27;25.17;;;20.50;;
32228;SDS011;18717;48.034;11.186;2023-05-14T11:09:59;25.38;;;20.70;;
32228;SDS011;18717;48.034;11.186;2023-05-14T11:12:27;25.85;;;20.90;;
32228;SDS011;18717;48.034;11.186;2023-05-14T11:14:55;26.60;;;21.30;;
32228;SDS011;18717;48.034;11.186;2023-05-14T11:17:24;24.65;;;20.27;;
32228;SDS011;18717;48.034;11.186;2023-05-14T11:19:53;24.95;;;20.55;;
32228;SDS011;18717;48.034;11.186;2023-05-14T11:22:21;27.23;;;22.00;;
32228;SDS011;18717;48.034;11.186;2023-05-14T11:24:50;24.33;;;21.63;;
32228;SDS011;18717;48.034;11.186;2023-05-14T11:27:18;28.67;;;22.13;;
32228;SDS011;18717;48.034;11.186;2023-05-14T11:29:46;29.40;;;21.80;;
32228;SDS011;18717;48.034;11.186;2023-05-14T11:32:15;25.25;;;21.75;;
32228;SDS011;18717;48.034;11.186;2023-05-14T11:34:43;26.75;;;20.73;;
32228;SDS011;18717;48.034;11.186;2023-05-14T11:37:12;23.92;;;21.08;;
32228;SDS011;18717;48.034;11.186;2023-05-14T11:39:45;24.83;;;20.02;;
32228;SDS011;18717;48.034;11.186;2023-05-14T11:42:15;22.48;;;19.98;;
32228;SDS011;18717;48.034;11.186;2023-05-14T11:44:45;24.23;;;21.55;;
32228;SDS011;18717;48.034;11.186;2023-05-14T11:47:14;26.98;;;20.10;;
32228;SDS011;18717;48.034;11.186;2023-05-14T11:49:43;24.92;;;20.15;;
32228;SDS011;18717;48.034;11.186;2023-05-14T11:52:11;22.85;;;19.75;;
32228;SDS011;18717;48.034;11.186;2023-05-14T11:54:40;23.25;;;20.08;;
32228;SDS011;18717;48.034;11.186;2023-05-14T11:57:09;24.85;;;18.67;;
32228;SDS011;18717;48.034;11.186;2023-05-14T11:59:39;23.77;;;19.27;;
32228;SDS011;18717;48.034;11.186;2023-05-14T12:02:07;21.05;;;18.83;;
32228;SDS011;18717;48.034;11.186;2023-05-14T12:04:36;23.33;;;19.55;;
32228;SDS011;18717;48.034;11.186;2023-05-14T12:07:08;23.30;;;19.50;;
32228;SDS011;18717;48.034;11.186;2023-05-14T12:09:37;20.30;;;17.85;;
32228;SDS011;18717;48.034;11.186;2023-05-14T12:12:09;20.55;;;18.45;;
32228;SDS011;18717;48.034;11.186;2023-05-14T12:14:38;20.45;;;18.25;;
32228;SDS011;18717;48.034;11.186;2023-05-14T12:17:10;19.58;;;17.58;;
32228;SDS011;18717;48.034;11.186;2023-05-14T12:19:39;20.25;;;18.20;;
32228;SDS011;18717;48.034;11.186;2023-05-14T12:22:08;19.45;;;17.52;;
32228;SDS011;18717;48.034;11.186;2023-05-14T12:24:36;19.23;;;17.25;;
32228;SDS011;18717;48.034;11.186;2023-05-14T12:27:05;19.52;;;17.55;;
32228;SDS011;18717;48.034;11.186;2023-05-14T12:29:36;20.35;;;18.13;;
32228;SDS011;18717;48.034;11.186;2023-05-14T12:32:09;23.10;;;20.67;;
32228;SDS011;18717;48.034;11.186;2023-05-14T12:34:37;19.83;;;17.75;;
32228;SDS011;18717;48.034;11.186;2023-05-14T12:37:05;20.00;;;18.00;;
32228;SDS011;18717;48.034;11.186;2023-05-14T12:39:33;19.20;;;17.30;;
32228;SDS011;18717;48.034;11.186;2023-05-14T12:42:00;23.13;;;18.40;;
32228;SDS011;18717;48.034;11.186;2023-05-14T12:44:28;20.90;;;18.27;;
32228;SDS011;18717;48.034;11.186;2023-05-14T12:46:56;19.48;;;17.48;;
32228;SDS011;18717;48.034;11.186;2023-05-14T12:49:25;19.40;;;17.40;;
32228;SDS011;18717;48.034;11.186;2023-05-14T12:51:53;18.50;;;16.73;;
32228;SDS011;18717;48.034;11.186;2023-05-14T12:54:41;21.55;;;18.17;;
32228;SDS011;18717;48.034;11.186;2023-05-14T12:57:08;19.48;;;17.55;;
32228;SDS011;18717;48.034;11.186;2023-05-14T12:59:36;19.35;;;17.50;;
32228;SDS011;18717;48.034;11.186;2023-05-14T13:02:04;19.13;;;17.15;;
32228;SDS011;18717;48.034;11.186;2023-05-14T13:04:33;18.30;;;16.60;;
32228;SDS011;18717;48.034;11.186;2023-05-14T13:07:00;17.48;;;15.80;;
32228;SDS011;18717;48.034;11.186;2023-05-14T13:09:28;17.30;;;15.80;;
32228;SDS011;18717;48.034;11.186;2023-05-14T13:11:56;16.33;;;14.93;;
32228;SDS011;18717;48.034;11.186;2023-05-14T13:14:24;15.63;;;14.43;;
32228;SDS011;18717;48.034;11.186;2023-05-14T13:16:52;17.15;;;15.65;;
32228;SDS011;18717;48.034;11.186;2023-05-14T13:19:19;17.17;;;15.70;;
32228;SDS011;18717;48.034;11.186;2023-05-14T13:21:48;17.77;;;16.38;;
32228;SDS011;18717;48.034;11.186;2023-05-14T13:24:16;16.77;;;15.45;;
32228;SDS011;18717;48.034;11.186;2023-05-14T13:26:43;15.73;;;14.43;;
32228;SDS011;18717;48.034;11.186;2023-05-14T13:29:11;15.93;;;14.63;;
32228;SDS011;18717;48.034;11.186;2023-05-14T13:31:39;15.60;;;14.40;;
32228;SDS011;18717;48.034;11.186;2023-05-14T13:34:06;15.82;;;14.65;;
32228;SDS011;18717;48.034;11.186;2023-05-14T13:36:35;15.85;;;14.60;;
32228;SDS011;18717;48.034;11.186;2023-05-14T13:39:06;15.35;;;14.00;;
32228;SDS011;18717;48.034;11.186;2023-05-14T13:41:33;15.77;;;14.43;;
32228;SDS011;18717;48.034;11.186;2023-05-14T13:44:03;15.68;;;14.50;;
32228;SDS011;18717;48.034;11.186;2023-05-14T13:46:31;15.88;;;14.73;;
32228;SDS011;18717;48.034;11.186;2023-05-14T13:48:59;15.25;;;13.93;;
32228;SDS011;18717;48.034;11.186;2023-05-14T13:51:27;15.32;;;14.10;;
32228;SDS011;18717;48.034;11.186;2023-05-14T13:53:54;14.73;;;13.80;;
32228;SDS011;18717;48.034;11.186;2023-05-14T13:56:23;15.50;;;14.40;;
32228;SDS011;18717;48.034;11.186;2023-05-14T13:58:51;14.50;;;13.50;;
32228;SDS011;18717;48.034;11.186;2023-05-14T14:01:19;14.82;;;13.70;;
32228;SDS011;18717;48.034;11.186;2023-05-14T14:03:48;14.00;;;13.10;;
32228;SDS011;18717;48.034;11.186;2023-05-14T14:06:16;14.20;;;13.20;;
32228;SDS011;18717;48.034;11.186;2023-05-14T14:08:43;14.23;;;13.25;;
32228;SDS011;18717;48.034;11.186;2023-05-14T14:11:11;14.50;;;13.40;;
32228;SDS011;18717;48.034;11.186;2023-05-14T14:13:40;15.38;;;14.23;;
32228;SDS011;18717;48.034;11.186;2023-05-14T14:16:11;14.77;;;13.68;;
32228;SDS011;18717;48.034;11.186;2023-05-14T14:18:39;13.77;;;12.73;;
32228;SDS011;18717;48.034;11.186;2023-05-14T14:21:08;14.38;;;13.48;;